Time;durP1;ratioP1;P1;durP2;ratioP2;P2;SDS_P1;SDS_P2;PMS_P1;PMS_P2;Temp;Humidity;BMP_temperature;BMP_pressure;BME280_temperature;BME280_humidity;BME280_pressure;Samples;Min_cycle;Max_cycle;Signal;HPM_P1;HPM_P2
2022/09/05 16:19:43;;;;;;;5.33;4.17;;;;;;;9.46;69.73;102582.56;4948929;28;2574383;-72
2022/09/05 16:22:24;;;;;;;4.93;4.20;;;;;;;9.41;68.33;102566.09;5049833;28;20057;-78
2022/09/05 16:24:57;;;;;;;5.47;4.60;;;;;;;9.36;67.60;102554.13;5051413;28;20037;-71
2022/09/05 16:27:51;;;;;;;5.77;4.00;;;;;;;9.49;67.94;102571.72;5049002;28;20467;-74
2022/09/05 16:30:23;;;;;;;5.27;3.97;;;;;;;9.48;67.70;102571.81;5030690;28;20495;-72
2022/09/05 16:32:55;;;;;;;5.23;4.73;;;;;;;9.56;67.36;102591.59;5049285;28;20037;-75
2022/09/05 16:35:22;;;;;;;4.97;4.43;;;;;;;9.57;68.80;102589.78;5048959;28;20076;-72
2022/09/05 16:38:19;;;;;;;7.60;5.33;;;;;;;9.61;68.78;102597.44;5049103;28;20131;-73
2022/09/05 16:41:03;;;;;;;9.60;5.05;;;;;;;9.61;69.20;102592.13;5041977;28;20060;-78
2022/09/05 16:43:33;;;;;;;5.93;5.33;;;;;;;9.54;68.58;102579.34;5031228;28;20603;-75
2022/09/05 16:46:08;;;;;;;6.43;5.10;;;;;;;9.61;69.52;102586.78;5049251;28;20086;-71
2022/09/05 16:48:50;;;;;;;11.87;4.10;;;;;;;9.62;69.34;102592.97;5048746;28;20033;-72
2022/09/05 16:51:42;;;;;;;7.10;4.40;;;;;;;9.58;69.70;102586.19;5048604;28;20037;-69
2022/09/05 16:54:10;;;;;;;8.10;4.83;;;;;;;9.55;70.59;102592.56;5046778;28;20054;-72
2022/09/05 16:56:40;;;;;;;5.90;4.40;;;;;;;9.57;70.74;102592.44;5037863;28;20098;-77
2022/09/05 16:59:10;;;;;;;7.30;4.70;;;;;;;9.52;71.64;102587.44;5028781;28;20030;-72
2022/09/05 17:01:48;;;;;;;6.13;4.93;;;;;;;9.59;71.57;102591.38;5028812;28;20125;-73
2022/09/05 17:04:28;;;;;;;5.38;4.30;;;;;;;9.41;71.35;102552.81;5028330;28;20032;-73
2022/09/05 17:06:58;;;;;;;4.73;3.90;;;;;;;9.59;69.85;102590.53;5010783;28;20049;-73
2022/09/05 17:09:27;;;;;;;5.73;4.60;;;;;;;9.45;69.94;102567.56;5036078;28;20037;-72
2022/09/05 17:11:59;;;;;;;4.28;3.80;;;;;;;9.43;69.18;102569.50;5047857;28;20570;-72
2022/09/05 17:14:32;;;;;;;5.60;4.70;;;;;;;9.43;69.75;102577.47;5040198;28;20495;-75
2022/09/05 17:17:03;;;;;;;7.10;4.40;;;;;;;9.44;69.81;102584.50;5048195;28;20064;-76
2022/09/05 17:19:40;;;;;;;5.23;4.53;;;;;;;9.42;69.75;102578.44;5048466;28;20057;-72
2022/09/05 17:22:27;;;;;;;5.35;4.30;;;;;;;9.40;69.79;102582.19;5045728;28;20061;-73
2022/09/05 17:25:14;;;;;;;5.37;4.23;;;;;;;9.38;69.88;102576.13;5028285;28;20069;-74
2022/09/05 17:27:41;;;;;;;4.13;3.23;;;;;;;9.38;67.66;102586.75;5016244;28;20037;-73
2022/09/05 17:30:09;;;;;;;5.80;3.97;;;;;;;9.37;68.26;102588.56;5015761;28;20061;-75
2022/09/05 17:32:37;;;;;;;4.90;3.92;;;;;;;9.38;68.67;102579.63;4997981;28;20088;-73
2022/09/05 17:35:17;;;;;;;4.63;4.10;;;;;;;9.28;67.22;102573.28;4997152;28;20039;-69
2022/09/05 17:37:51;;;;;;;6.13;4.00;;;;;;;9.26;66.86;102567.22;4997567;28;20404;-75
2022/09/05 17:40:54;;;;;;;4.23;3.63;;;;;;;9.30;67.84;102577.53;5014990;28;20038;-73
2022/09/05 17:43:25;;;;;;;5.13;4.13;;;;;;;9.27;67.42;102587.53;4996269;28;20046;-74
2022/09/05 17:45:50;;;;;;;4.73;3.93;;;;;;;9.22;67.62;102585.19;4996851;28;20125;-74
2022/09/05 17:48:53;;;;;;;4.50;3.70;;;;;;;9.23;67.11;102583.38;5014668;28;20133;-74
2022/09/05 17:51:24;;;;;;;4.40;3.47;;;;;;;9.20;67.57;102591.56;5014474;28;20048;-73
2022/09/05 17:54:01;;;;;;;4.63;3.93;;;;;;;9.16;66.30;102582.13;5014394;28;20500;-73
2022/09/05 17:56:39;;;;;;;4.43;3.77;;;;;;;9.13;66.97;102585.00;5015767;28;20493;-74
2022/09/05 17:59:04;;;;;;;3.90;3.23;;;;;;;9.11;66.87;102584.25;5015749;28;20038;-71
2022/09/05 18:01:31;;;;;;;3.97;3.57;;;;;;;9.02;66.14;102572.47;5015562;28;20117;-74
2022/09/05 18:03:59;;;;;;;6.23;3.10;;;;;;;9.03;66.36;102574.19;4987020;28;20091;-71
2022/09/05 18:06:31;;;;;;;4.57;3.35;;;;;;;9.06;66.55;102583.72;5033903;28;20037;-72
2022/09/05 18:08:57;;;;;;;6.03;3.13;;;;;;;9.08;66.40;102587.13;5034180;28;20178;-71
2022/09/05 18:11:24;;;;;;;4.43;3.43;;;;;;;9.06;66.84;102586.41;4999901;28;20427;-71
2022/09/05 18:14:10;;;;;;;5.73;4.47;;;;;;;9.08;66.15;102598.63;5035230;28;20041;-82
2022/09/05 18:16:39;;;;;;;6.13;3.33;;;;;;;9.04;66.09;102596.28;5017209;28;20083;-77
2022/09/05 18:19:14;;;;;;;3.80;3.40;;;;;;;9.02;65.90;102593.75;5019621;28;20069;-80
2022/09/05 18:22:00;;;;;;;4.97;3.80;;;;;;;8.84;65.69;102569.28;5014578;28;20049;-80
2022/09/05 18:24:29;;;;;;;4.67;3.77;;;;;;;8.94;65.83;102580.13;5008863;28;20046;-76
2022/09/05 18:26:58;;;;;;;4.53;3.50;;;;;;;8.79;66.04;102549.31;5012977;28;20049;-78
2022/09/05 18:29:35;;;;;;;4.90;4.38;;;;;;;9.02;66.86;102582.25;5012865;28;20096;-79
2022/09/05 18:32:04;;;;;;;4.87;4.43;;;;;;;8.97;67.35;102575.47;5014199;28;20034;-75
2022/09/05 18:34:33;;;;;;;5.37;3.97;;;;;;;9.08;66.87;102587.97;5012542;28;20044;-74
2022/09/05 18:37:36;;;;;;;5.83;4.00;;;;;;;9.06;66.79;102581.06;5013762;28;20121;-73
